Overview Statistics Trail Chart Weather Telemetry Raw packets
 

This is the latest recevied telemetry packets stored in our database for station/object DC8RAI-11. If no packets are shown the sender has not sent any telemetry packets the latest 10 day(s).

Telemetry packets is used to share measurements like repeteater parameters, battery voltage, radiation readings (or any other measurements).

<< 1 2 3 4 >>
Time Press* Temp.in* Hum* QNH* Temp.out*
1788564741 962.6 hPa 25.1 C deg 50.1 % 1021.8 hPa 0 C deg
1788562926 962.6 hPa 25 C deg 49 % 1021.8 hPa 0 C deg
1788561111 962.4 hPa 24.9 C deg 47.7 % 1021.6 hPa 0 C deg
1788559296 962.2 hPa 25.2 C deg 47.4 % 1021.3 hPa 0 C deg
1788557480 962 hPa 25.4 C deg 46.4 % 1021.1 hPa 0 C deg
1788555665 961.8 hPa 26.2 C deg 41.8 % 1020.7 hPa 0 C deg
1788553850 961.8 hPa 26.2 C deg 44.4 % 1020.7 hPa 0 C deg
1788552035 961.6 hPa 26.9 C deg 42.3 % 1020.4 hPa 0 C deg
1788550220 961.6 hPa 27.5 C deg 40.9 % 1020.2 hPa 0 C deg
1788548405 961.4 hPa 28.3 C deg 38.2 % 1019.9 hPa 0 C deg
1788546590 961.2 hPa 29.5 C deg 37.1 % 1019.4 hPa 0 C deg
1788544775 960.9 hPa 30.1 C deg 31.4 % 1019 hPa 0 C deg
1788542960 960.5 hPa 31 C deg 30 % 1018.3 hPa 0 C deg
1788541145 960.3 hPa 31.7 C deg 30.5 % 1018.1 hPa 0 C deg
1788539330 960.4 hPa 31.9 C deg 24.3 % 1018.2 hPa 0 C deg
1788537514 960.5 hPa 33.8 C deg 25.2 % 1017.8 hPa 0 C deg
1788535699 960.6 hPa 34 C deg 24.6 % 1017.9 hPa 0 C deg
1788533884 960.9 hPa 35.2 C deg 24.2 % 1018 hPa 0 C deg
1788532069 961.2 hPa 36.3 C deg 24.2 % 1018.1 hPa 0 C deg
1788530254 961.4 hPa 36.4 C deg 25.4 % 1018.3 hPa 0 C deg
1788528439 961.9 hPa 36.2 C deg 24.6 % 1018.9 hPa 0 C deg
1788526624 962.5 hPa 35.2 C deg 24.1 % 1019.7 hPa 0 C deg
1788524809 963 hPa 35.6 C deg 22.7 % 1020.2 hPa 0 C deg
1788522994 963.4 hPa 35.8 C deg 27.7 % 1020.5 hPa 0 C deg
1788521179 963.9 hPa 34.7 C deg 30.1 % 1021.3 hPa 0 C deg
*Used Equation Coefficients:
Press: 0, 1, 0
Temp.in: 0, 1, 0
Hum: 0, 1, 0
QNH: 0, 1, 0
Temp.out: 0, 1, 0

  • The parameter names for the analog channels will be Value1, Value2, Value3 (up to Value5) if station has not sent a PARAM-packet that specifies the parameter names for each analog channel.
  • Each analog value is a decimal number between 000 and 255 (according to APRS specifications). The receiver use the telemetry equation coefficientsto to restore the original sensor values. If no EQNS-packet with equation coefficients is sent we will show the values as is (this corresponds to the equation coefficients a=0, b=1 and c=0).
    The sent equation coefficients is used in the equation: a * value2 + b * value + c.
  • The units for the analog values will not be shown if station has not sent a UNIT-packet specifying what unit's to use.
  • The parameter names for the digital bits will be Bit1, Bit2, Bit3 (up to Bit8) if station has not sent a PARAM-packet that specifies the parameter names for each digital bit.
  • All bit labels will be named "On" if station has not sent a UNIT-packet that specifies the label of each bit.
  • A bit is considered to be On when the bit is 1 if station has not sent a BITS-packet that specifies another "Bit sense" (a BITS-packet specify the state of the bits that match the BIT labels)